createdAt,value
2022-12-22T00:04:40.925Z,8.82
2022-12-22T00:10:02.463Z,8.85
2022-12-22T00:15:24.254Z,8.82
2022-12-22T00:20:45.039Z,8.85
2022-12-22T00:26:07.843Z,8.84
2022-12-22T00:31:28.544Z,8.85
2022-12-22T00:36:49.009Z,8.90
2022-12-22T00:42:10.827Z,8.95
2022-12-22T00:47:33.096Z,8.97
2022-12-22T00:52:54.894Z,8.98
2022-12-22T00:58:17.208Z,9.03
2022-12-22T01:41:18.921Z,9.13
2022-12-22T01:46:41.553Z,9.12
2022-12-22T01:52:03.707Z,9.10
2022-12-22T01:57:24.562Z,9.07
2022-12-22T02:02:46.430Z,9.04
2022-12-22T02:08:19.591Z,8.98
2022-12-22T02:13:48.458Z,8.97
2022-12-22T02:19:15.731Z,8.94
2022-12-22T02:24:50.658Z,8.92
2022-12-22T02:30:15.670Z,8.86
2022-12-22T02:35:35.981Z,8.85
2022-12-22T02:41:08.082Z,8.86
2022-12-22T02:46:38.418Z,8.86
2022-12-22T02:52:07.049Z,8.89
2022-12-22T02:57:27.753Z,8.87
2022-12-22T03:02:49.815Z,8.87
2022-12-22T03:08:10.120Z,8.86
2022-12-22T03:13:30.432Z,8.84
2022-12-22T03:18:51.998Z,8.89
2022-12-22T03:24:12.291Z,8.86
2022-12-22T03:29:15.214Z,8.89
2022-12-22T03:34:19.425Z,8.91
2022-12-22T03:39:22.304Z,8.91
2022-12-22T03:44:42.462Z,8.92
2022-12-22T03:49:46.612Z,8.94
2022-12-22T03:54:49.307Z,8.98
2022-12-22T03:59:52.144Z,9.01
2022-12-22T04:04:56.193Z,9.02
2022-12-22T04:10:16.815Z,9.02
2022-12-22T04:15:19.560Z,9.07
2022-12-22T04:20:26.748Z,9.07
2022-12-22T04:25:29.684Z,9.06
2022-12-22T04:30:32.584Z,9.08
2022-12-22T04:35:36.760Z,9.09
2022-12-22T04:40:39.475Z,9.13
2022-12-22T04:45:42.251Z,9.11
2022-12-22T04:50:46.383Z,9.15
2022-12-22T04:55:50.395Z,9.16
2022-12-22T05:00:53.487Z,9.18
2022-12-22T05:05:57.760Z,9.16
2022-12-22T05:11:00.560Z,9.22
2022-12-22T05:16:08.305Z,9.22
2022-12-22T05:21:13.807Z,9.28
2022-12-22T05:26:17.832Z,9.34
2022-12-22T05:31:24.172Z,9.36
2022-12-22T05:36:28.388Z,9.40
2022-12-22T05:41:31.282Z,9.39
2022-12-22T05:46:34.080Z,9.39
2022-12-22T05:51:38.252Z,9.40
2022-12-22T05:56:41.067Z,9.43
2022-12-22T06:01:43.923Z,9.44
2022-12-22T06:06:48.186Z,9.45
2022-12-22T06:11:50.907Z,9.46
2022-12-22T06:16:53.688Z,9.56
2022-12-22T06:21:58.099Z,9.63
2022-12-22T06:27:01.207Z,9.72
2022-12-22T06:32:04.365Z,9.85
2022-12-22T06:37:08.644Z,9.95
2022-12-22T06:42:29.512Z,9.99
2022-12-22T06:47:32.386Z,10.04
2022-12-22T06:52:36.544Z,10.09
2022-12-22T06:57:39.318Z,10.10
2022-12-22T07:02:42.177Z,10.09
2022-12-22T07:07:47.137Z,10.06
2022-12-22T07:12:52.565Z,10.03
2022-12-22T07:17:56.125Z,10.02
2022-12-22T07:23:01.277Z,9.98
2022-12-22T07:28:04.722Z,9.96
2022-12-22T07:33:08.175Z,9.94
2022-12-22T07:38:17.135Z,9.95
2022-12-22T07:43:20.185Z,9.96
2022-12-22T07:48:40.544Z,9.92
2022-12-22T07:53:44.680Z,9.87
2022-12-22T07:58:49.887Z,9.83
2022-12-22T08:03:56.957Z,9.81
2022-12-22T08:09:01.213Z,9.78
2022-12-22T08:14:04.079Z,9.76
2022-12-22T08:19:07.830Z,9.72
2022-12-22T08:24:12.253Z,9.69
2022-12-22T08:29:20.855Z,9.52
2022-12-22T08:34:24.339Z,9.45
2022-12-22T08:39:33.705Z,9.41
2022-12-22T08:44:39.156Z,9.42
2022-12-22T08:49:42.187Z,9.37
2022-12-22T08:54:47.652Z,9.36
2022-12-22T08:59:52.209Z,9.37
2022-12-22T09:04:58.152Z,9.42
2022-12-22T09:10:03.261Z,9.49
2022-12-22T09:15:07.255Z,9.53
2022-12-22T09:20:11.231Z,9.54
2022-12-22T09:25:18.357Z,9.54
2022-12-22T09:30:21.410Z,9.53
2022-12-22T09:35:24.395Z,9.51
2022-12-22T09:40:28.714Z,9.49
2022-12-22T09:45:36.705Z,9.59
2022-12-22T09:50:41.176Z,9.61
2022-12-22T09:55:48.282Z,9.61
2022-12-22T10:00:55.242Z,9.56
2022-12-22T10:06:02.485Z,9.61
2022-12-22T10:11:09.333Z,9.65
2022-12-22T10:16:19.788Z,9.63
2022-12-22T10:21:24.275Z,9.67
2022-12-22T10:26:35.329Z,9.77
2022-12-22T10:31:58.366Z,9.91
2022-12-22T10:37:05.096Z,9.84
2022-12-22T10:42:14.600Z,9.82
2022-12-22T10:47:21.055Z,9.85
2022-12-22T10:52:30.444Z,9.84
2022-12-22T10:57:35.349Z,9.81
2022-12-22T11:02:40.342Z,9.82
2022-12-22T11:07:46.934Z,9.87
2022-12-22T11:13:11.208Z,9.88
2022-12-22T11:18:27.317Z,9.83
2022-12-22T11:23:37.786Z,9.81
2022-12-22T11:28:53.152Z,9.91
2022-12-22T11:34:15.887Z,10.01
2022-12-22T11:39:37.836Z,10.09
2022-12-22T11:44:53.699Z,10.27
2022-12-22T11:50:59.039Z,10.30
2022-12-22T11:55:38.467Z,10.30
2022-12-22T12:06:27.802Z,10.25
2022-12-22T12:11:37.403Z,10.30
2022-12-22T12:16:47.197Z,10.23
2022-12-22T12:21:52.975Z,10.16
2022-12-22T12:27:04.207Z,10.17
2022-12-22T12:32:15.544Z,10.05
2022-12-22T12:37:26.569Z,10.00
2022-12-22T12:42:34.140Z,9.86
2022-12-22T12:47:38.076Z,9.84
2022-12-22T12:53:08.628Z,9.91
2022-12-22T12:58:13.772Z,10.00
2022-12-22T13:09:49.122Z,9.96
2022-12-22T13:14:59.398Z,9.98
2022-12-22T13:20:03.856Z,9.95
2022-12-22T13:25:07.880Z,9.95
2022-12-22T13:30:15.327Z,9.97
2022-12-22T13:35:32.160Z,10.00
2022-12-22T13:40:42.438Z,9.98
2022-12-22T13:45:49.104Z,9.93
2022-12-22T13:50:55.426Z,9.92
2022-12-22T13:55:59.486Z,9.88
2022-12-22T14:01:05.332Z,9.77
2022-12-22T14:06:23.493Z,9.75
2022-12-22T14:11:26.297Z,9.69
2022-12-22T14:16:29.324Z,9.72
2022-12-22T14:22:06.081Z,9.78
2022-12-22T14:27:19.244Z,9.73
2022-12-22T14:32:47.888Z,9.68
2022-12-22T14:38:08.534Z,9.64
2022-12-22T14:43:25.806Z,9.59
2022-12-22T14:48:32.880Z,9.60
2022-12-22T14:53:44.840Z,9.57
2022-12-22T14:58:50.477Z,9.55
2022-12-22T15:04:04.185Z,9.55
2022-12-22T15:10:12.647Z,9.53
2022-12-22T15:14:52.158Z,9.49
2022-12-22T15:19:58.926Z,9.43
2022-12-22T15:25:03.500Z,9.40
2022-12-22T15:30:07.510Z,9.38
2022-12-22T15:35:19.855Z,9.37
2022-12-22T15:40:25.602Z,9.33
2022-12-22T15:45:30.849Z,9.30
2022-12-22T15:50:39.209Z,9.23
2022-12-22T15:55:45.612Z,9.19
2022-12-22T16:00:49.238Z,9.14
2022-12-22T16:05:52.814Z,9.10
2022-12-22T16:10:57.082Z,9.03
2022-12-22T16:16:00.518Z,8.99
2022-12-22T16:21:08.006Z,8.95
2022-12-22T16:26:17.444Z,8.85
2022-12-22T16:31:23.441Z,8.72
2022-12-22T16:36:26.363Z,8.73
2022-12-22T16:41:30.545Z,8.68
2022-12-22T16:46:37.688Z,8.61
2022-12-22T16:51:48.108Z,8.61
2022-12-22T16:56:52.488Z,8.60
2022-12-22T17:01:57.762Z,8.58
2022-12-22T17:07:03.160Z,8.53
2022-12-22T17:12:07.836Z,8.53
2022-12-22T17:17:15.883Z,8.52
2022-12-22T17:22:24.475Z,8.50
2022-12-22T17:27:31.140Z,8.52
2022-12-22T17:32:34.062Z,8.48
2022-12-22T17:37:36.846Z,8.49
2022-12-22T17:42:41.418Z,8.49
2022-12-22T17:47:44.474Z,8.48
2022-12-22T17:52:48.332Z,8.46
2022-12-22T17:57:53.176Z,8.46
2022-12-22T18:02:56.730Z,8.44
2022-12-22T18:08:01.444Z,8.46
2022-12-22T18:13:12.565Z,8.46
2022-12-22T18:18:17.263Z,8.43
2022-12-22T18:23:26.574Z,8.43
2022-12-22T18:28:30.616Z,8.46
2022-12-22T18:33:34.460Z,8.47
2022-12-22T18:38:37.412Z,8.48
2022-12-22T18:43:41.891Z,8.50
2022-12-22T18:48:44.904Z,8.50
2022-12-22T18:53:48.397Z,8.53
2022-12-22T18:58:52.529Z,8.55
2022-12-22T19:03:56.947Z,8.56
2022-12-22T19:08:59.682Z,8.55
2022-12-22T19:14:03.809Z,8.56
2022-12-22T19:19:06.684Z,8.55
2022-12-22T19:24:09.570Z,8.54
2022-12-22T19:29:15.472Z,8.53
2022-12-22T19:34:21.402Z,8.54
2022-12-22T19:39:24.196Z,8.50
2022-12-22T19:44:30.602Z,8.52
2022-12-22T19:49:34.278Z,8.52
2022-12-22T19:54:38.655Z,8.55
2022-12-22T19:59:45.365Z,8.56
2022-12-22T20:04:48.531Z,8.57
2022-12-22T20:09:51.777Z,8.56
2022-12-22T20:14:56.020Z,8.57
2022-12-22T20:19:58.797Z,8.60
2022-12-22T20:25:01.667Z,8.60
2022-12-22T20:30:06.534Z,8.63
2022-12-22T20:35:09.445Z,8.67
2022-12-22T20:40:23.795Z,8.67
2022-12-22T20:45:31.873Z,8.68
2022-12-22T20:50:35.669Z,8.69
2022-12-22T20:55:38.503Z,8.69
2022-12-22T21:00:43.327Z,8.70
2022-12-22T21:05:47.671Z,8.70
2022-12-22T21:10:53.032Z,8.72
2022-12-22T21:15:57.214Z,8.73
2022-12-22T21:20:59.995Z,8.73
2022-12-22T21:26:03.001Z,8.74
2022-12-22T21:31:07.425Z,8.75
2022-12-22T21:36:18.412Z,8.75
2022-12-22T21:41:41.641Z,8.72
2022-12-22T21:46:47.862Z,8.70
2022-12-22T21:51:52.524Z,8.70
2022-12-22T21:56:55.897Z,8.70
2022-12-22T22:02:00.388Z,8.70
2022-12-22T22:07:03.365Z,8.70
2022-12-22T22:12:28.238Z,8.70
2022-12-22T22:17:32.763Z,8.68
2022-12-22T22:22:35.605Z,8.67
2022-12-22T22:27:41.795Z,8.67
2022-12-22T22:32:50.384Z,8.67
2022-12-22T22:37:53.274Z,8.68
2022-12-22T22:42:56.847Z,8.67
2022-12-22T22:48:04.933Z,8.67
2022-12-22T22:53:10.506Z,8.67
2022-12-22T22:58:13.248Z,8.67
2022-12-22T23:03:17.639Z,8.66
2022-12-22T23:08:20.528Z,8.67
2022-12-22T23:13:23.514Z,8.68
2022-12-22T23:18:28.516Z,8.67
2022-12-22T23:23:33.067Z,8.67
2022-12-22T23:28:35.888Z,8.63
2022-12-22T23:33:40.125Z,8.59
2022-12-22T23:38:42.938Z,8.58
2022-12-22T23:43:45.777Z,8.58
2022-12-22T23:48:53.236Z,8.56
2022-12-22T23:53:57.139Z,8.55
2022-12-22T23:59:00.165Z,8.52
